Long Lake, New York
Current Conditions -  °F | °C
As of 11:43 AM on Sunday 21 Dec 2014 (Local Time) from KSLK Reporting Station
Overcast Overcast  
Wind Chill: 15°   Ceiling: 1000
Heat Index: 23°   Visibility: 10mi
Dew Point: 19°   Wind: 7mph
Humidity: 85%   Direction: 230°SW
Pressure: 30.23"   Gusts: NA
Location:  43.96°N, 74.41°W
Report Text: KSLK 211643Z AUTO 23006KT 10SM BKN010 OVC016 M05/M07 A3023 RMK AO2 T10501072 $
Loading
Personal Weather Stations






























Interactive Weather Map New forecast layout! Learn more

10-Day Weather Forecast

Advertisements
Track Severe Weather on mobile